createdAt,value
2023-03-03T00:00:39.938Z,50.877174
2023-03-03T00:01:39.953Z,50.877205
2023-03-03T00:02:39.947Z,50.877216
2023-03-03T00:03:39.982Z,50.877178
2023-03-03T00:04:39.896Z,50.877163
2023-03-03T00:05:39.880Z,50.877186
2023-03-03T00:06:39.885Z,50.877190
2023-03-03T00:07:39.862Z,50.877190
2023-03-03T00:08:39.884Z,50.877182
2023-03-03T00:09:39.835Z,50.877163
2023-03-03T00:10:39.843Z,50.877190
2023-03-03T00:11:39.845Z,50.877190
2023-03-03T00:12:39.836Z,50.877190
2023-03-03T00:13:39.811Z,50.877178
2023-03-03T00:14:39.812Z,50.877182
2023-03-03T00:15:39.834Z,50.877190
2023-03-03T00:16:39.770Z,50.877186
2023-03-03T00:17:39.766Z,50.877178
2023-03-03T00:18:39.766Z,50.877193
2023-03-03T00:19:39.772Z,50.877193
2023-03-03T00:20:39.742Z,50.877193
2023-03-03T00:21:39.717Z,50.877216
2023-03-03T00:22:39.725Z,50.877197
2023-03-03T00:23:39.715Z,50.877193
2023-03-03T00:24:39.715Z,50.877190
2023-03-03T00:25:39.695Z,50.877243
2023-03-03T00:26:39.698Z,50.877239
2023-03-03T00:27:39.689Z,50.877228
2023-03-03T00:28:39.655Z,50.877216
2023-03-03T00:29:39.646Z,50.877182
2023-03-03T00:30:39.638Z,50.877213
2023-03-03T00:31:39.665Z,50.877213
2023-03-03T00:32:39.621Z,50.877186
2023-03-03T00:33:39.592Z,50.877224
2023-03-03T00:34:39.599Z,50.877220
2023-03-03T00:35:39.618Z,50.877174
2023-03-03T00:36:39.604Z,50.877167
2023-03-03T00:37:39.580Z,50.877178
2023-03-03T00:38:39.566Z,50.877178
2023-03-03T00:39:39.555Z,50.877190
2023-03-03T00:40:39.531Z,50.877197
2023-03-03T00:41:39.549Z,50.877232
2023-03-03T00:42:39.522Z,50.877228
2023-03-03T00:43:39.514Z,50.877174
2023-03-03T00:44:39.497Z,50.877182
2023-03-03T00:45:39.513Z,50.877125
2023-03-03T00:46:39.498Z,50.877110
2023-03-03T00:47:39.469Z,50.877144
2023-03-03T00:48:39.462Z,50.877155
2023-03-03T00:49:39.500Z,50.877136
2023-03-03T00:50:39.441Z,50.877151
2023-03-03T00:51:39.436Z,50.877071
2023-03-03T00:52:39.424Z,50.877148
2023-03-03T00:53:39.448Z,50.877174
2023-03-03T00:54:39.433Z,50.877171
2023-03-03T00:55:39.387Z,50.877163
2023-03-03T00:56:39.390Z,50.877167
2023-03-03T00:57:39.378Z,50.877167
2023-03-03T00:58:39.372Z,50.877171
2023-03-03T00:59:39.364Z,50.877197
2023-03-03T01:00:39.374Z,50.877201
2023-03-03T01:01:39.402Z,50.877251
2023-03-03T01:02:39.411Z,50.877258
2023-03-03T01:03:39.318Z,50.877190
2023-03-03T01:04:39.307Z,50.877201
2023-03-03T01:05:39.316Z,50.877209
2023-03-03T01:06:39.317Z,50.877216
2023-03-03T01:07:39.284Z,50.877213
2023-03-03T01:08:39.295Z,50.877235
2023-03-03T01:09:39.270Z,50.877209
2023-03-03T01:10:39.258Z,50.877201
2023-03-03T01:11:39.253Z,50.877205
2023-03-03T01:12:39.223Z,50.877232
2023-03-03T01:13:39.242Z,50.877213
2023-03-03T01:14:39.224Z,50.877239
2023-03-03T01:18:56.002Z,50.877251
2023-03-03T01:19:55.956Z,50.877213
2023-03-03T01:20:55.920Z,50.877201
2023-03-03T01:21:55.934Z,50.877178
2023-03-03T01:22:55.909Z,50.877193
2023-03-03T01:23:55.921Z,50.877213
2023-03-03T01:24:56.331Z,50.877224
2023-03-03T01:25:55.904Z,50.877224
2023-03-03T01:26:55.861Z,50.877190
2023-03-03T01:27:55.869Z,50.877209
2023-03-03T01:28:55.841Z,50.877201
2023-03-03T01:29:55.837Z,50.877205
2023-03-03T01:30:55.896Z,50.877213
2023-03-03T01:31:55.860Z,50.877205
2023-03-03T01:32:55.806Z,50.877209
2023-03-03T01:33:55.810Z,50.877201
2023-03-03T01:34:55.782Z,50.877193
2023-03-03T01:35:55.856Z,50.877182
2023-03-03T01:36:55.763Z,50.877190
2023-03-03T01:37:55.762Z,50.877193
2023-03-03T01:38:55.747Z,50.877197
2023-03-03T01:39:55.746Z,50.877197
2023-03-03T01:40:55.764Z,50.877201
2023-03-03T01:41:55.718Z,50.877193
2023-03-03T01:42:55.712Z,50.877190
2023-03-03T01:43:55.724Z,50.877197
2023-03-03T01:44:55.688Z,50.877197
2023-03-03T01:45:55.700Z,50.877201
2023-03-03T01:46:55.725Z,50.877190
2023-03-03T01:47:55.656Z,50.877197
2023-03-03T01:48:55.668Z,50.877186
2023-03-03T01:49:55.656Z,50.877182
2023-03-03T01:50:55.640Z,50.877193
2023-03-03T01:51:55.630Z,50.877186
2023-03-03T01:52:55.624Z,50.877201
2023-03-03T01:53:55.617Z,50.877174
2023-03-03T01:54:55.597Z,50.877163
2023-03-03T01:55:55.587Z,50.877220
2023-03-03T01:56:55.569Z,50.877186
2023-03-03T01:57:55.563Z,50.877213
2023-03-03T01:58:55.575Z,50.877254
2023-03-03T01:59:55.538Z,50.877228
2023-03-03T02:00:55.529Z,50.877209
2023-03-03T02:01:55.618Z,50.877209
2023-03-03T02:02:55.599Z,50.877232
2023-03-03T02:03:55.531Z,50.877220
2023-03-03T02:04:55.502Z,50.877209
2023-03-03T02:05:55.488Z,50.877220
2023-03-03T02:06:55.474Z,50.877186
2023-03-03T02:07:55.458Z,50.877201
2023-03-03T02:08:55.466Z,50.877205
2023-03-03T02:09:56.459Z,50.877224
2023-03-03T02:10:55.440Z,50.877205
2023-03-03T02:11:55.431Z,50.877186
2023-03-03T02:12:55.419Z,50.877193
2023-03-03T02:13:55.408Z,50.877201
2023-03-03T02:14:55.420Z,50.877201
2023-03-03T02:15:55.447Z,50.877209
2023-03-03T02:16:55.386Z,50.877205
2023-03-03T02:17:55.369Z,50.877220
2023-03-03T02:18:55.369Z,50.877190
2023-03-03T02:19:55.347Z,50.877209
2023-03-03T02:20:55.364Z,50.877186
2023-03-03T02:21:55.338Z,50.877201
2023-03-03T02:22:55.323Z,50.877197
2023-03-03T02:23:55.320Z,50.877209
2023-03-03T02:24:55.325Z,50.877209
2023-03-03T02:25:56.879Z,50.877201
2023-03-03T02:26:55.285Z,50.877224
2023-03-03T02:27:55.281Z,50.877216
2023-03-03T02:28:55.272Z,50.877205
2023-03-03T02:29:55.277Z,50.877209
2023-03-03T02:30:55.248Z,50.877167
2023-03-03T02:31:55.420Z,50.877232
2023-03-03T02:32:55.245Z,50.877216
2023-03-03T02:33:55.231Z,50.877228
2023-03-03T02:34:55.210Z,50.877224
2023-03-03T02:35:55.297Z,50.877235
2023-03-03T02:36:55.204Z,50.877254
2023-03-03T02:37:55.197Z,50.877281
2023-03-03T02:38:55.217Z,50.877281
2023-03-03T02:39:55.177Z,50.877289
2023-03-03T02:40:55.156Z,50.877319
2023-03-03T02:41:55.165Z,50.877335
2023-03-03T02:42:55.138Z,50.877380
2023-03-03T02:43:55.150Z,50.877388
2023-03-03T02:44:55.124Z,50.877384
2023-03-03T02:45:55.119Z,50.877300
2023-03-03T02:46:55.125Z,50.877270
2023-03-03T02:47:55.085Z,50.877266
2023-03-03T02:48:55.087Z,50.877254
2023-03-03T02:49:55.107Z,50.877205
2023-03-03T02:50:55.063Z,50.877285
2023-03-03T02:51:55.062Z,50.877319
2023-03-03T02:52:55.037Z,50.877411
2023-03-03T02:53:55.039Z,50.877445
2023-03-03T02:54:55.038Z,50.877361
2023-03-03T02:55:55.107Z,50.877365
2023-03-03T02:56:55.005Z,50.877430
2023-03-03T02:57:55.011Z,50.877392
2023-03-03T02:58:54.997Z,50.877502
2023-03-03T02:59:54.982Z,50.877480
2023-03-03T03:00:54.990Z,50.877499
2023-03-03T03:01:54.947Z,50.877350
2023-03-03T03:02:54.936Z,50.877460
2023-03-03T03:03:54.986Z,50.877411
2023-03-03T03:04:54.937Z,50.877480
2023-03-03T03:05:54.904Z,50.877331
2023-03-03T03:06:54.893Z,50.877178
2023-03-03T03:07:54.907Z,50.877098
2023-03-03T03:08:54.882Z,50.877167
2023-03-03T03:09:54.908Z,50.877140
2023-03-03T03:10:54.867Z,50.877094
2023-03-03T03:11:54.855Z,50.877083
2023-03-03T03:12:54.845Z,50.877045
2023-03-03T03:13:54.837Z,50.877037
2023-03-03T03:14:54.872Z,50.877045
2023-03-03T03:15:54.806Z,50.877060
2023-03-03T03:16:54.907Z,50.877083
2023-03-03T03:17:54.802Z,50.877064
2023-03-03T03:18:54.789Z,50.877113
2023-03-03T03:19:54.778Z,50.877178
2023-03-03T03:20:54.770Z,50.877274
2023-03-03T03:21:54.784Z,50.877159
2023-03-03T03:22:54.743Z,50.877087
2023-03-03T03:23:54.729Z,50.877041
2023-03-03T03:24:54.721Z,50.877056
2023-03-03T03:25:54.709Z,50.877026
2023-03-03T03:26:54.720Z,50.877102
2023-03-03T03:27:54.707Z,50.877056
2023-03-03T03:28:54.710Z,50.877106
2023-03-03T03:29:54.659Z,50.877079
2023-03-03T03:30:54.671Z,50.877121
2023-03-03T03:31:54.698Z,50.877151
2023-03-03T03:32:54.658Z,50.877186
2023-03-03T03:33:54.633Z,50.877243
2023-03-03T03:34:54.625Z,50.877388
2023-03-03T03:35:54.645Z,50.877388
2023-03-03T03:36:54.604Z,50.877388
2023-03-03T03:37:54.605Z,50.877388
2023-03-03T03:38:54.600Z,50.877388
2023-03-03T03:39:54.594Z,50.877388
2023-03-03T03:40:54.595Z,50.877388
2023-03-03T03:41:54.559Z,50.877388
2023-03-03T03:42:54.546Z,50.877388
2023-03-03T03:43:54.547Z,50.877388
2023-03-03T03:44:54.526Z,50.877388
2023-03-03T03:45:54.565Z,50.877033
2023-03-03T03:46:54.506Z,50.877052
2023-03-03T03:47:54.504Z,50.876820
2023-03-03T03:48:54.497Z,50.876892
2023-03-03T03:49:55.498Z,50.876892
2023-03-03T03:50:54.464Z,50.876892
2023-03-03T03:51:54.463Z,50.876797
2023-03-03T03:52:54.478Z,50.876991
2023-03-03T03:53:54.449Z,50.876854
2023-03-03T03:54:54.429Z,50.877003
2023-03-03T03:55:54.410Z,50.877003
2023-03-03T03:56:54.429Z,50.877003
2023-03-03T03:57:54.422Z,50.877003
2023-03-03T03:58:54.394Z,50.877003
2023-03-03T03:59:54.401Z,50.877003
2023-03-03T04:00:54.372Z,50.877003
2023-03-03T04:01:54.357Z,50.877003
2023-03-03T04:02:54.530Z,50.877003
2023-03-03T04:03:54.361Z,50.877121
2023-03-03T04:04:54.339Z,50.877060
2023-03-03T04:05:54.343Z,50.877117
2023-03-03T04:06:54.333Z,50.877110
2023-03-03T04:07:54.313Z,50.877148
2023-03-03T04:08:54.297Z,50.877151
2023-03-03T04:09:54.318Z,50.877121
2023-03-03T04:10:54.294Z,50.877064
2023-03-03T04:11:54.272Z,50.877121
2023-03-03T04:12:54.290Z,50.877106
2023-03-03T04:13:54.250Z,50.877087
2023-03-03T04:14:54.268Z,50.877083
2023-03-03T04:15:54.314Z,50.877201
2023-03-03T04:16:54.230Z,50.877148
2023-03-03T04:17:54.240Z,50.877178
2023-03-03T04:18:54.223Z,50.877171
2023-03-03T04:19:54.191Z,50.877178
2023-03-03T04:20:54.213Z,50.877174
2023-03-03T04:21:54.175Z,50.877182
2023-03-03T04:22:54.173Z,50.877163
2023-03-03T04:23:54.156Z,50.877117
2023-03-03T04:24:54.163Z,50.877144
2023-03-03T04:25:54.134Z,50.877102
2023-03-03T04:26:54.140Z,50.877117
2023-03-03T04:27:54.119Z,50.877117
2023-03-03T04:28:54.115Z,50.877151
2023-03-03T04:29:54.121Z,50.877155
2023-03-03T04:30:54.124Z,50.877209
2023-03-03T04:31:54.107Z,50.877163
2023-03-03T04:32:54.073Z,50.877209
2023-03-03T04:33:54.054Z,50.877228
2023-03-03T04:35:05.734Z,50.877220
2023-03-03T04:35:56.088Z,50.877193
2023-03-03T04:36:54.052Z,50.877174
2023-03-03T04:37:54.018Z,50.877140
2023-03-03T04:38:54.019Z,50.877171
2023-03-03T04:39:54.004Z,50.877228
2023-03-03T04:40:53.997Z,50.877178
2023-03-03T04:41:54.006Z,50.877174
2023-03-03T04:42:53.998Z,50.877178
2023-03-03T04:43:53.951Z,50.877140
2023-03-03T04:44:53.955Z,50.877144
2023-03-03T04:45:54.021Z,50.877159
2023-03-03T04:46:53.945Z,50.877174
2023-03-03T04:47:53.935Z,50.877159
2023-03-03T04:48:53.930Z,50.877171
2023-03-03T04:49:53.908Z,50.877186
2023-03-03T04:50:53.894Z,50.877182
2023-03-03T04:51:53.893Z,50.877182
2023-03-03T04:52:53.898Z,50.877193
2023-03-03T04:53:53.890Z,50.877197
2023-03-03T04:54:53.865Z,50.877190
2023-03-03T04:55:53.862Z,50.877186
2023-03-03T04:56:53.845Z,50.877190
2023-03-03T04:57:53.854Z,50.877205
2023-03-03T04:58:53.820Z,50.877193
2023-03-03T04:59:53.808Z,50.877205
2023-03-03T05:00:53.816Z,50.877197
2023-03-03T05:01:53.936Z,50.877209
2023-03-03T05:02:53.773Z,50.877262
2023-03-03T05:03:53.784Z,50.877319
2023-03-03T05:04:53.794Z,50.877201
2023-03-03T05:05:53.742Z,50.877224
2023-03-03T05:06:53.755Z,50.877197
2023-03-03T05:07:53.732Z,50.877193
2023-03-03T05:08:53.723Z,50.877171
2023-03-03T05:09:53.705Z,50.877186
2023-03-03T05:10:53.694Z,50.877197
2023-03-03T05:11:53.723Z,50.877224
2023-03-03T05:12:53.673Z,50.877205
2023-03-03T05:13:53.660Z,50.877209
2023-03-03T05:14:53.668Z,50.877182
2023-03-03T05:15:53.685Z,50.877220
2023-03-03T05:16:53.659Z,50.877228
2023-03-03T05:17:53.628Z,50.877232
2023-03-03T05:18:53.609Z,50.877190
2023-03-03T05:19:54.615Z,50.877201
2023-03-03T05:20:53.589Z,50.877232
2023-03-03T05:21:53.608Z,50.877193
2023-03-03T05:22:53.576Z,50.877243
2023-03-03T05:23:53.574Z,50.877186
2023-03-03T05:24:53.552Z,50.877117
2023-03-03T05:25:53.552Z,50.877224
2023-03-03T05:26:53.531Z,50.877308
2023-03-03T05:27:53.546Z,50.877193
2023-03-03T05:28:53.503Z,50.877079
2023-03-03T05:29:54.524Z,50.877098
2023-03-03T05:30:53.509Z,50.877201
2023-03-03T05:31:54.495Z,50.877213
2023-03-03T05:32:53.488Z,50.877228
2023-03-03T05:33:53.467Z,50.877316
2023-03-03T05:34:53.495Z,50.877228
2023-03-03T05:35:53.463Z,50.877335
2023-03-03T05:36:53.438Z,50.877224
2023-03-03T05:37:53.455Z,50.877270
2023-03-03T05:38:53.430Z,50.877205
2023-03-03T05:39:53.412Z,50.877220
2023-03-03T05:40:53.392Z,50.877251
2023-03-03T05:41:53.393Z,50.877182
2023-03-03T05:42:53.468Z,50.877163
2023-03-03T05:43:53.376Z,50.877216
2023-03-03T05:44:53.355Z,50.877277
2023-03-03T05:45:53.363Z,50.877228
2023-03-03T05:46:53.397Z,50.877274
2023-03-03T05:47:53.350Z,50.877304
2023-03-03T05:48:53.348Z,50.877296
2023-03-03T05:49:53.310Z,50.877224
2023-03-03T05:50:53.299Z,50.877213
2023-03-03T05:51:53.296Z,50.877178
2023-03-03T05:52:53.296Z,50.877163
2023-03-03T05:53:56.002Z,50.877224
2023-03-03T05:54:53.264Z,50.877232
2023-03-03T05:55:53.254Z,50.877209
2023-03-03T05:56:53.257Z,50.877193
2023-03-03T05:57:53.234Z,50.877102
2023-03-03T05:58:53.248Z,50.877190
2023-03-03T05:59:53.224Z,50.877235
2023-03-03T06:00:53.203Z,50.877247
2023-03-03T06:01:53.282Z,50.877205
2023-03-03T06:02:53.238Z,50.877258
2023-03-03T06:03:53.196Z,50.877220
2023-03-03T06:04:53.166Z,50.877193
2023-03-03T06:05:53.166Z,50.877193
2023-03-03T06:06:53.147Z,50.877205
2023-03-03T06:07:53.211Z,50.877270
2023-03-03T06:08:54.509Z,50.877209
2023-03-03T06:09:53.124Z,50.877193
2023-03-03T06:10:53.115Z,50.877258
2023-03-03T06:11:53.105Z,50.877239
2023-03-03T06:12:53.106Z,50.877235
2023-03-03T06:13:53.087Z,50.877331
2023-03-03T06:14:53.079Z,50.877239
2023-03-03T06:15:53.083Z,50.877060
2023-03-03T06:16:53.042Z,50.877026
2023-03-03T06:17:53.039Z,50.877140
2023-03-03T06:18:53.029Z,50.877190
2023-03-03T06:19:53.024Z,50.877346
2023-03-03T06:20:53.025Z,50.877254
2023-03-03T06:21:53.006Z,50.877235
2023-03-03T06:22:52.987Z,50.877125
2023-03-03T06:23:53.010Z,50.877216
2023-03-03T06:24:53.016Z,50.877216
2023-03-03T06:25:52.965Z,50.877144
2023-03-03T06:26:52.947Z,50.877171
2023-03-03T06:27:52.946Z,50.877174
2023-03-03T06:28:52.922Z,50.877182
2023-03-03T06:29:52.933Z,50.877186
2023-03-03T06:30:52.902Z,50.877197
2023-03-03T06:31:54.042Z,50.877190
2023-03-03T06:32:52.894Z,50.877186
2023-03-03T06:33:52.902Z,50.877205
2023-03-03T06:34:52.875Z,50.877205
2023-03-03T06:35:52.952Z,50.877327
2023-03-03T06:36:52.863Z,50.877316
2023-03-03T06:37:52.832Z,50.877335
2023-03-03T06:38:52.865Z,50.877399
2023-03-03T06:39:52.853Z,50.877560
2023-03-03T06:40:52.875Z,50.877411
2023-03-03T06:41:52.883Z,50.877270
2023-03-03T06:42:52.785Z,50.877151
2023-03-03T06:43:52.783Z,50.877087
2023-03-03T06:44:52.808Z,50.877136
2023-03-03T06:45:52.806Z,50.877155
2023-03-03T06:46:52.747Z,50.877167
2023-03-03T06:47:52.745Z,50.877205
2023-03-03T06:48:52.731Z,50.877163
2023-03-03T06:49:52.738Z,50.877163
2023-03-03T06:50:52.723Z,50.877159
2023-03-03T06:51:52.700Z,50.877174
2023-03-03T06:52:52.706Z,50.877178
2023-03-03T06:53:52.682Z,50.877186
2023-03-03T06:54:52.665Z,50.877193
2023-03-03T06:55:52.665Z,50.877174
2023-03-03T06:56:52.681Z,50.877140
2023-03-03T06:57:52.682Z,50.877121
2023-03-03T06:58:52.636Z,50.877144
2023-03-03T06:59:52.619Z,50.877182
2023-03-03T07:00:52.646Z,50.877171
2023-03-03T07:01:52.604Z,50.877144
2023-03-03T07:02:52.612Z,50.877129
2023-03-03T07:03:52.607Z,50.877151
2023-03-03T07:04:52.571Z,50.877186
2023-03-03T07:05:52.571Z,50.877228
2023-03-03T07:06:52.587Z,50.877232
2023-03-03T07:07:52.562Z,50.877193
2023-03-03T07:08:52.551Z,50.877193
2023-03-03T07:09:52.551Z,50.877190
2023-03-03T07:10:52.541Z,50.877209
2023-03-03T07:11:52.568Z,50.877232
2023-03-03T07:12:52.498Z,50.877258
2023-03-03T07:13:52.489Z,50.877239
2023-03-03T07:14:52.519Z,50.877209
2023-03-03T07:15:52.489Z,50.877182
2023-03-03T07:17:24.386Z,50.877193
2023-03-03T07:17:52.478Z,50.877167
2023-03-03T07:18:52.451Z,50.877201
2023-03-03T07:19:52.464Z,50.877155
2023-03-03T07:20:52.457Z,50.877167
2023-03-03T07:21:52.430Z,50.877209
2023-03-03T07:22:52.442Z,50.877186
2023-03-03T07:23:52.429Z,50.877201
2023-03-03T07:24:53.119Z,50.877197
2023-03-03T07:25:52.410Z,50.877205
2023-03-03T07:26:52.374Z,50.877190
2023-03-03T07:27:52.360Z,50.877171
2023-03-03T07:28:52.372Z,50.877243
2023-03-03T07:29:52.346Z,50.877201
2023-03-03T07:30:52.411Z,50.877209
2023-03-03T07:31:52.342Z,50.877209
2023-03-03T07:32:52.315Z,50.877182
2023-03-03T07:33:52.313Z,50.877213
2023-03-03T07:34:52.300Z,50.877220
2023-03-03T07:35:52.347Z,50.877232
2023-03-03T07:36:52.278Z,50.877228
2023-03-03T07:37:52.278Z,50.877201
2023-03-03T07:38:52.261Z,50.877224
2023-03-03T07:39:52.260Z,50.877209
2023-03-03T07:40:52.280Z,50.877232
2023-03-03T07:41:52.260Z,50.877228
2023-03-03T07:42:52.250Z,50.877190
2023-03-03T07:43:52.247Z,50.877209
2023-03-03T07:44:52.259Z,50.877209
2023-03-03T07:45:52.249Z,50.877232
2023-03-03T07:46:52.188Z,50.877235
2023-03-03T07:47:52.204Z,50.877201
2023-03-03T07:48:52.177Z,50.877228
2023-03-03T07:49:52.181Z,50.877216
2023-03-03T07:50:52.144Z,50.877239
2023-03-03T07:51:52.137Z,50.877232
2023-03-03T07:52:52.154Z,50.877232
2023-03-03T07:53:52.144Z,50.877201
2023-03-03T07:54:52.107Z,50.877182
2023-03-03T07:55:52.097Z,50.877182
2023-03-03T07:56:52.133Z,50.877201
2023-03-03T07:57:52.094Z,50.877205
2023-03-03T07:58:52.124Z,50.877193
2023-03-03T07:59:52.073Z,50.877213
2023-03-03T08:00:52.104Z,50.877216
2023-03-03T08:01:52.035Z,50.877216
2023-03-03T08:02:52.077Z,50.877186
2023-03-03T08:03:52.035Z,50.877182
2023-03-03T08:04:52.104Z,50.877186
2023-03-03T08:05:52.037Z,50.877193
2023-03-03T08:06:52.007Z,50.877201
2023-03-03T08:07:52.000Z,50.877201
2023-03-03T08:08:51.991Z,50.877193
2023-03-03T08:09:52.041Z,50.877174
2023-03-03T08:10:51.987Z,50.877190
2023-03-03T08:11:51.946Z,50.877178
2023-03-03T08:12:52.010Z,50.877178
2023-03-03T08:13:51.924Z,50.877171
2023-03-03T08:14:51.947Z,50.877201
2023-03-03T08:15:51.912Z,50.877190
2023-03-03T08:16:51.898Z,50.877186
2023-03-03T08:17:51.883Z,50.877182
2023-03-03T08:18:51.871Z,50.877178
2023-03-03T08:19:51.869Z,50.877182
2023-03-03T08:20:51.868Z,50.877167
2023-03-03T08:21:51.851Z,50.877159
2023-03-03T08:22:51.836Z,50.877151
2023-03-03T08:23:51.834Z,50.877144
2023-03-03T08:24:51.805Z,50.877132
2023-03-03T08:25:51.825Z,50.877136
2023-03-03T08:26:51.789Z,50.877155
2023-03-03T08:27:51.800Z,50.877132
2023-03-03T08:28:51.800Z,50.877167
2023-03-03T08:29:51.776Z,50.877163
2023-03-03T08:30:54.412Z,50.877163
2023-03-03T08:31:52.817Z,50.877178
2023-03-03T08:32:51.781Z,50.877151
2023-03-03T08:33:51.728Z,50.877140
2023-03-03T08:34:51.704Z,50.877171
2023-03-03T08:35:51.713Z,50.877186
2023-03-03T08:36:51.689Z,50.877178
2023-03-03T08:37:51.683Z,50.877174
2023-03-03T08:38:51.682Z,50.877186
2023-03-03T08:39:51.666Z,50.877224
2023-03-03T08:40:51.643Z,50.877193
2023-03-03T08:41:51.643Z,50.877163
2023-03-03T08:42:51.624Z,50.877193
2023-03-03T08:43:51.665Z,50.877209
2023-03-03T08:44:51.607Z,50.877209
2023-03-03T08:45:51.605Z,50.877174
2023-03-03T08:46:51.710Z,50.877171
2023-03-03T08:47:51.601Z,50.877213
2023-03-03T08:48:51.575Z,50.877209
2023-03-03T08:49:51.569Z,50.877216
2023-03-03T08:50:51.559Z,50.877186
2023-03-03T08:51:51.564Z,50.877167
2023-03-03T08:52:51.551Z,50.877197
2023-03-03T08:53:51.576Z,50.877186
2023-03-03T08:54:51.541Z,50.877155
2023-03-03T08:55:51.547Z,50.877186
2023-03-03T08:56:51.525Z,50.877171
2023-03-03T08:57:51.504Z,50.877151
2023-03-03T08:59:02.273Z,50.877155
2023-03-03T08:59:53.471Z,50.877186
2023-03-03T09:00:52.174Z,50.877182
2023-03-03T09:01:51.467Z,50.877171
2023-03-03T09:02:51.466Z,50.877106
2023-03-03T09:03:51.430Z,50.877117
2023-03-03T09:04:51.502Z,50.877182
2023-03-03T09:05:51.409Z,50.877220
2023-03-03T09:06:51.412Z,50.877197
2023-03-03T09:07:51.389Z,50.877132
2023-03-03T09:08:51.397Z,50.877140
2023-03-03T09:09:51.391Z,50.877193
2023-03-03T09:10:51.373Z,50.877228
2023-03-03T09:11:51.349Z,50.877205
2023-03-03T09:12:51.352Z,50.877228
2023-03-03T09:13:51.354Z,50.877220
2023-03-03T09:14:51.342Z,50.877197
2023-03-03T09:15:51.331Z,50.877186
2023-03-03T09:16:51.329Z,50.877163
2023-03-03T09:17:51.295Z,50.877155
2023-03-03T09:18:51.320Z,50.877171
2023-03-03T09:19:51.287Z,50.877178
2023-03-03T09:20:51.288Z,50.877151
2023-03-03T09:21:51.260Z,50.877178
2023-03-03T09:22:51.245Z,50.877209
2023-03-03T09:23:52.277Z,50.877197
2023-03-03T09:24:51.226Z,50.877163
2023-03-03T09:25:51.212Z,50.877182
2023-03-03T09:26:51.230Z,50.877201
2023-03-03T09:27:51.223Z,50.877232
2023-03-03T09:28:51.191Z,50.877197
2023-03-03T09:29:51.176Z,50.877209
2023-03-03T09:30:51.176Z,50.877155
2023-03-03T09:31:51.270Z,50.877163
2023-03-03T09:32:51.149Z,50.877186
2023-03-03T09:33:51.140Z,50.877182
2023-03-03T09:34:51.132Z,50.877209
2023-03-03T09:35:51.166Z,50.877193
2023-03-03T09:36:51.113Z,50.877129
2023-03-03T09:37:51.128Z,50.877167
2023-03-03T09:38:51.101Z,50.877205
2023-03-03T09:39:51.121Z,50.877228
2023-03-03T09:40:51.072Z,50.877209
2023-03-03T09:41:51.098Z,50.877201
2023-03-03T09:42:51.076Z,50.877213
2023-03-03T09:43:51.045Z,50.877182
2023-03-03T09:44:51.044Z,50.877163
2023-03-03T09:45:51.042Z,50.877167
2023-03-03T09:46:51.068Z,50.877159
2023-03-03T09:47:51.022Z,50.877151
2023-03-03T09:48:50.995Z,50.877163
2023-03-03T09:49:51.337Z,50.877155
2023-03-03T09:50:51.054Z,50.877148
2023-03-03T09:51:51.013Z,50.877151
2023-03-03T09:52:50.949Z,50.877155
2023-03-03T09:53:50.965Z,50.877182
2023-03-03T09:54:50.941Z,50.877186
2023-03-03T09:55:50.939Z,50.877155
2023-03-03T09:56:50.910Z,50.877148
2023-03-03T09:58:04.478Z,50.877167
2023-03-03T09:58:51.894Z,50.877174
2023-03-03T09:59:50.902Z,50.877155
2023-03-03T10:00:50.893Z,50.877144
2023-03-03T10:01:50.856Z,50.877155
2023-03-03T10:02:53.180Z,50.877167
2023-03-03T10:03:52.256Z,50.877182
2023-03-03T10:04:50.849Z,50.877121
2023-03-03T10:05:50.854Z,50.877113
2023-03-03T10:06:50.820Z,50.877178
2023-03-03T10:07:50.797Z,50.877087
2023-03-03T10:08:50.841Z,50.877140
2023-03-03T10:09:50.793Z,50.877136
2023-03-03T10:10:51.330Z,50.877140
2023-03-03T10:11:50.775Z,50.877144
2023-03-03T10:12:50.761Z,50.877098
2023-03-03T10:13:50.748Z,50.877098
2023-03-03T10:14:50.737Z,50.877068
2023-03-03T10:15:50.753Z,50.877125
2023-03-03T10:16:50.848Z,50.877144
2023-03-03T10:17:50.901Z,50.877182
2023-03-03T10:18:51.055Z,50.877209
2023-03-03T10:19:51.320Z,50.877197
2023-03-03T10:20:52.804Z,50.877216
2023-03-03T10:21:52.199Z,50.877209
2023-03-03T10:22:50.679Z,50.877174
2023-03-03T10:23:50.664Z,50.877182
2023-03-03T10:24:50.638Z,50.877201
2023-03-03T10:25:50.657Z,50.877201
2023-03-03T10:27:05.302Z,50.877216
2023-03-03T10:27:52.609Z,50.877209
2023-03-03T10:28:50.624Z,50.877228
2023-03-03T10:29:50.593Z,50.877220
2023-03-03T10:31:04.117Z,50.877201
2023-03-03T10:31:52.687Z,50.877209
2023-03-03T10:32:50.759Z,50.877205
2023-03-03T10:33:50.645Z,50.877201
2023-03-03T10:34:50.547Z,50.877193
2023-03-03T10:36:05.963Z,50.877197
2023-03-03T10:36:52.566Z,50.877190
2023-03-03T10:37:50.513Z,50.877201
2023-03-03T10:38:50.533Z,50.877197
2023-03-03T10:39:50.491Z,50.877186
2023-03-03T10:40:50.523Z,50.877213
2023-03-03T10:41:50.509Z,50.877228
2023-03-03T10:42:50.469Z,50.877220
2023-03-03T10:43:50.462Z,50.877186
2023-03-03T10:44:50.450Z,50.877228
2023-03-03T10:45:50.462Z,50.877216
2023-03-03T10:46:50.463Z,50.877247
2023-03-03T10:47:50.430Z,50.877201
2023-03-03T10:48:50.411Z,50.877182
2023-03-03T10:49:50.409Z,50.877201
2023-03-03T10:50:50.388Z,50.877190
2023-03-03T10:51:50.379Z,50.877193
2023-03-03T10:52:50.464Z,50.877205
2023-03-03T10:53:50.387Z,50.877224
2023-03-03T10:54:50.382Z,50.877216
2023-03-03T10:55:50.386Z,50.877193
2023-03-03T10:56:53.419Z,50.877235
2023-03-03T10:57:51.354Z,50.877205
2023-03-03T10:58:50.361Z,50.877209
2023-03-03T10:59:50.322Z,50.877220
2023-03-03T11:00:50.313Z,50.877197
2023-03-03T11:01:50.299Z,50.877209
2023-03-03T11:02:50.308Z,50.877201
2023-03-03T11:03:50.267Z,50.877220
2023-03-03T11:04:50.279Z,50.877243
2023-03-03T11:05:50.277Z,50.877239
2023-03-03T11:06:50.255Z,50.877235
2023-03-03T11:07:50.254Z,50.877224
2023-03-03T11:08:50.224Z,50.877213
2023-03-03T11:09:50.206Z,50.877228
2023-03-03T11:10:50.217Z,50.877216
2023-03-03T11:11:50.201Z,50.877201
2023-03-03T11:12:50.187Z,50.877205
2023-03-03T11:13:50.170Z,50.877213
2023-03-03T11:14:50.156Z,50.877220
2023-03-03T11:15:50.160Z,50.877205
2023-03-03T11:16:50.213Z,50.877224
2023-03-03T11:17:50.128Z,50.877239
2023-03-03T11:18:50.123Z,50.877224
2023-03-03T11:19:50.141Z,50.877220
2023-03-03T11:20:50.103Z,50.877205
2023-03-03T11:21:50.098Z,50.877243
2023-03-03T11:22:50.072Z,50.877220
2023-03-03T11:23:50.083Z,50.877235
2023-03-03T11:24:50.081Z,50.877224
2023-03-03T11:25:50.066Z,50.877197
2023-03-03T11:26:50.072Z,50.877228
2023-03-03T11:27:50.045Z,50.877220